Latest Weather Observations for Goulburn Airport

IDN60801

Issued at 3:22 pm EDT Monday 18 November 2019 (issued every 10 minutes, with the page automatically refreshed every 10 minutes)

About weather observations | Map of weather stations | Latest weather observations for NSW | Other Formats
Station Details ID: 070330 Name: GOULBURN AIRPORT AWS Lat: -34.81 Lon: 149.73 Height: 640.0 m
Data from the previous 72 hours. | See also: Recent months at Goulburn Airport
Date/Time
EDT
Temp
°C
App
Temp
°C
Dew
Point
°C
Rel
Hum
%
Delta-T
°C
Wind Press
QNH
hPa
Press
MSL
hPa
Rain since
9am
mm
Dir  Spd
km/h
Gust
km/h
Spd
kts
Gust
kts
18/03:00pm 25.2 15.9 -2.4 16 12.6 WNW 37 48 20 26 1015.3 1013.6 0.0
18/02:33pm 24.7 16.7 -2.0 17 12.2 NW 30 48 16 26 1015.6 1013.9 0.0
18/02:30pm 25.0 16.7 -1.7 17 12.3 WNW 32 48 17 26 1015.7 1014.1 0.0
18/02:00pm 23.8 14.8 -2.7 17 11.9 WNW 35 50 19 27 1016.0 1014.4 0.0
18/01:46pm 24.9 16.1 -1.0 18 12.1 WNW 35 54 19 29 1016.2 1014.6 0.0
18/01:30pm 24.0 14.7 -1.8 18 11.8 WNW 37 50 20 27 1016.3 1014.7 0.0
18/01:00pm 23.8 15.4 -1.2 19 11.5 WNW 33 46 18 25 1017.0 1015.3 0.0
18/12:40pm 23.0 15.1 -1.8 19 11.2 NW 30 46 16 25 1017.4 1015.8 0.0
18/12:30pm 22.4 13.9 -1.6 20 10.9 WNW 33 46 18 25 1017.5 1015.9 0.0
18/12:09pm 22.1 14.0 -0.6 22 10.4 WNW 32 50 17 27 1017.7 1016.1 0.0
18/12:00pm 21.5 12.2 -2.4 20 10.5 WNW 37 50 20 27 1017.7 1016.1 0.0
18/11:30am 22.1 13.8 -1.9 20 10.8 WNW 32 44 17 24 1018.1 1016.5 0.0
18/11:00am 21.4 13.6 1.7 27 9.4 WNW 32 46 17 25 1018.6 1017.0 0.0
18/10:30am 19.6 11.1 1.1 29 8.6 W 35 44 19 24 1018.9 1017.3 0.0
18/10:00am 19.1 11.7 1.6 31 8.2 W 30 37 16 20 1019.1 1017.5 0.0
18/09:30am 17.8 11.1 1.7 34 7.5 WNW 26 35 14 19 1019.2 1017.6 0.0
18/09:00am 17.1 12.5 5.4 46 5.8 NW 19 28 10 15 1019.2 1017.6 0.0
18/08:30am 14.9 10.6 7.2 60 3.9 NW 19 28 10 15 1019.3 1017.7 0.0
18/08:00am 13.5 10.2 8.1 70 2.8 NW 15 20 8 11 1019.2 1017.6 0.0
18/07:30am 12.2 9.3 8.3 77 2.0 NNW 13 17 7 9 1019.0 1017.4 0.0
18/07:00am 11.3 8.9 8.5 83 1.4 N 11 17 6 9 1018.8 1017.2 0.0
18/06:30am 9.3 9.0 8.7 96 0.3 CALM 0 0 0 0 1018.5 1016.9 0.0
18/06:00am 8.2 7.6 7.3 94 0.4 CALM 0 0 0 0 1018.1 1016.5 0.0
18/05:30am 8.2 7.4 6.7 90 0.7 CALM 0 0 0 0 1018.1 1016.5 0.0
18/05:00am 9.4 7.1 7.5 88 0.9 ENE 9 11 5 6 1018.3 1016.6 0.0
18/04:30am 10.3 8.1 7.9 85 1.2 ENE 9 11 5 6 1018.5 1016.9 0.0
18/04:00am 11.1 8.6 8.3 83 1.4 ENE 11 13 6 7 1018.8 1017.2 0.0
18/03:30am 11.2 8.7 8.4 83 1.4 ENE 11 13 6 7 1019.2 1017.6 0.0
18/03:14am 11.2 8.4 8.4 83 1.4 ENE 13 17 7 9 1019.2 1017.6 0.0
18/03:00am 11.3 8.8 8.3 82 1.5 ENE 11 15 6 8 1019.3 1017.7 0.0
18/02:30am 11.4 8.6 8.4 82 1.5 ENE 13 17 7 9 1019.5 1017.9 0.0
18/02:00am 11.4 8.2 8.4 82 1.5 ENE 15 20 8 11 1019.6 1018.0 0.0
18/01:49am 11.4 8.6 8.4 82 1.5 ENE 13 19 7 10 1019.5 1017.9 0.0
18/01:30am 11.3 7.7 8.3 82 1.5 ENE 17 20 9 11 1019.7 1018.1 0.0
18/01:16am 11.4 8.2 8.4 82 1.5 E 15 20 8 11 1020.1 1018.5 0.0
18/01:00am 11.5 8.3 8.4 81 1.6 E 15 20 8 11 1020.4 1018.8 0.0
18/12:53am 11.4 7.8 8.3 81 1.6 E 17 20 9 11 1020.5 1018.9 0.0
18/12:49am 11.5 7.9 8.4 81 1.6 E 17 20 9 11 1020.5 1018.9 0.0
18/12:31am 11.4 7.8 8.3 81 1.6 E 17 24 9 13 1020.6 1019.0 0.0
18/12:30am 11.4 7.8 8.3 81 1.6 E 17 24 9 13 1020.6 1019.0 0.0
18/12:22am 11.4 7.8 8.4 82 1.5 E 17 22 9 12 1020.8 1019.2 0.0
18/12:00am 11.5 8.3 8.5 82 1.5 ENE 15 20 8 11 1020.8 1019.2 0.0
 
Date/Time
EDT
Temp
°C
App
Temp
°C
Dew
Point
°C
Rel
Hum
%
Delta-T
°C
Wind Press
QNH
hPa
Press
MSL
hPa
Rain since
9am
mm
Dir  Spd
km/h
Gust
km/h
Spd
kts
Gust
kts
17/11:30pm 11.5 8.3 8.4 81 1.6 ENE 15 19 8 10 1020.9 1019.3 0.0
17/11:00pm 11.4 7.8 8.3 81 1.6 ENE 17 20 9 11 1021.2 1019.7 0.0
17/10:30pm 11.6 7.6 8.1 79 1.8 ENE 19 26 10 14 1021.0 1019.4 0.0
17/10:00pm 11.7 7.6 8.0 78 1.9 E 19 22 10 12 1021.1 1019.5 0.0
17/09:30pm 11.7 8.0 8.0 78 1.9 E 17 20 9 11 1021.1 1019.5 0.0
17/09:00pm 11.7 7.4 8.0 78 1.9 E 20 26 11 14 1020.8 1019.2 0.0
17/08:30pm 11.8 7.1 7.9 77 2.0 E 22 32 12 17 1020.6 1019.0 0.0
17/08:00pm 11.9 6.5 8.0 77 2.0 ESE 26 35 14 19 1020.2 1018.6 0.0
17/07:30pm 12.0 6.5 7.7 75 2.2 ESE 26 35 14 19 1019.4 1017.8 0.0
17/07:27pm 12.2 6.8 7.9 75 2.2 E 26 35 14 19 1019.3 1017.7 0.0
17/07:00pm 13.0 7.2 7.9 71 2.6 ESE 28 35 15 19 1018.7 1017.1 0.0
17/06:30pm 14.6 8.4 7.9 64 3.5 ESE 30 37 16 20 1017.9 1016.3 0.0
17/06:00pm 16.8 10.6 8.0 56 4.6 E 30 39 16 21 1017.1 1015.5 0.0
17/05:30pm 18.5 12.7 7.9 50 5.6 E 28 39 15 21 1016.7 1015.0 0.0
17/05:00pm 18.9 13.0 7.4 47 6.0 E 28 37 15 20 1015.9 1014.3 0.0
17/04:30pm 23.1 17.3 -8.9 11 12.7 WNW 15 26 8 14 1015.2 1013.5 0.0
17/04:00pm 23.3 17.4 -10.0 10 12.9 NW 15 32 8 17 1015.1 1013.4 0.0
17/03:30pm 22.5 15.8 -8.3 12 12.3 WNW 20 30 11 16 1015.1 1013.4 0.0
17/03:00pm 23.4 15.9 -8.7 11 12.8 WNW 24 33 13 18 1015.1 1013.4 0.0
17/02:30pm 22.5 15.5 -7.3 13 12.1 WNW 22 33 12 18 1015.5 1013.8 0.0
17/02:00pm 21.9 16.7 -5.9 15 11.5 NNW 13 32 7 17 1015.7 1014.1 0.0
17/01:30pm 21.2 15.1 -4.0 18 10.8 W 19 32 10 17 1016.1 1014.5 0.0
17/01:00pm 21.8 16.3 -5.1 16 11.3 NNW 15 28 8 15 1016.0 1014.4 0.0
17/12:30pm 20.8 16.2 -1.1 23 9.9 W 13 22 7 12 1016.1 1014.5 0.0
17/12:00pm 20.4 16.4 0.3 26 9.3 WNW 11 26 6 14 1016.4 1014.8 0.0
17/11:30am 18.8 15.3 1.3 31 8.1 N 9 24 5 13 1016.8 1015.1 0.0
17/11:00am 18.0 14.7 2.3 35 7.4 WSW 9 15 5 8 1016.9 1015.2 0.0
17/10:30am 17.9 14.8 3.8 39 6.8 SSE 9 13 5 7 1017.1 1015.5 0.0
17/10:00am 17.9 15.9 4.5 41 6.6 SSW 4 9 2 5 1017.3 1015.7 0.0
17/09:30am 15.7 13.3 4.4 47 5.5 N 6 13 3 7 1017.2 1015.6 0.0
17/09:00am 16.0 14.4 8.0 59 4.2 NE 6 11 3 6 1017.1 1015.5 0.0
17/08:55am 15.7 13.2 6.4 54 4.7 ENE 9 15 5 8 1017.1 1015.5 0.0
17/08:39am 15.2 14.9 8.7 65 3.4 CALM 0 4 0 2 1017.1 1015.5 0.0
17/08:30am 14.4 13.3 8.6 68 3.0 NE 4 7 2 4 1017.1 1015.5 0.0
17/08:00am 13.6 13.7 10.0 79 1.9 CALM 0 6 0 3 1017.1 1015.5 0.0
17/07:49am 13.4 12.8 10.4 82 1.6 NW 4 7 2 4 1017.0 1015.3 0.0
17/07:30am 12.1 11.2 10.8 92 0.7 W 6 9 3 5 1016.9 1015.2 0.0
17/07:00am 10.6 9.4 9.5 93 0.6 NNW 6 9 3 5 1016.6 1014.9 0.0
17/06:30am 9.6 8.2 8.8 95 0.4 N 6 9 3 5 1016.1 1014.5 0.0
17/06:00am 9.0 8.6 8.1 94 0.4 CALM 0 0 0 0 1015.9 1014.3 0.0
17/05:59am 9.0 8.6 8.1 94 0.4 CALM 0 0 0 0 1016.0 1014.4 0.0
17/05:37am 9.3 7.5 8.1 92 0.6 NE 7 11 4 6 1015.9 1014.3 0.0
17/05:30am 10.0 9.4 8.9 93 0.6 ESE 2 9 1 5 1015.6 1013.9 0.0
17/05:00am 10.6 10.5 9.4 92 0.6 CALM 0 0 0 0 1016.0 1014.4 0.0
17/04:30am 10.5 10.5 9.7 95 0.4 CALM 0 0 0 0 1015.9 1014.3 0.0
17/04:00am 9.8 9.6 9.0 95 0.4 CALM 0 0 0 0 1016.1 1014.5 0.0
17/03:30am 9.9 8.7 9.4 97 0.3 ESE 6 9 3 5 1016.2 1014.6 0.0
17/03:08am 9.4 8.0 8.8 96 0.3 SSW 6 7 3 4 1016.6 1014.9 0.0
17/03:00am 9.5 8.5 8.7 95 0.4 SSW 4 7 2 4 1016.7 1015.0 0.0
17/02:30am 9.7 8.3 9.6 99 0.1 WSW 7 11 4 6 1016.4 1014.8 0.0
17/02:00am 8.1 5.7 6.9 92 0.6 WSW 9 11 5 6 1016.7 1015.0 0.0
17/01:30am 8.9 8.2 7.0 88 0.9 CALM 0 0 0 0 1016.6 1014.9 0.0
17/01:16am 9.8 8.9 7.7 87 1.0 ESE 2 6 1 3 1016.6 1014.9 0.0
17/01:00am 10.7 9.3 8.8 88 1.0 ESE 6 7 3 4 1016.6 1014.9 0.0
17/12:30am 11.9 11.6 10.1 89 1.0 NW 2 9 1 5 1017.1 1015.5 0.0
17/12:15am 11.3 10.1 9.4 88 1.0 W 6 9 3 5 1017.1 1015.5 0.0
17/12:00am 12.2 10.9 9.9 86 1.2 NE 7 17 4 9 1016.9 1015.2 0.0
 
Date/Time
EDT
Temp
°C
App
Temp
°C
Dew
Point
°C
Rel
Hum
%
Delta-T
°C
Wind Press
QNH
hPa
Press
MSL
hPa
Rain since
9am
mm
Dir  Spd
km/h
Gust
km/h
Spd
kts
Gust
kts
16/11:30pm 12.5 10.8 9.9 84 1.4 ENE 9 15 5 8 1016.9 1015.2 0.0
16/11:00pm 12.7 11.3 9.7 82 1.6 ENE 7 11 4 6 1017.3 1015.7 0.0
16/10:30pm 13.1 11.4 9.7 80 1.8 ENE 9 13 5 7 1017.4 1015.8 0.0
16/10:00pm 13.6 11.8 9.5 76 2.2 ENE 9 11 5 6 1017.3 1015.7 0.0
16/09:30pm 14.0 11.7 9.0 72 2.6 ENE 11 15 6 8 1017.0 1015.3 0.0
16/09:00pm 15.4 11.8 6.9 57 4.3 E 15 28 8 15 1016.4 1014.8 0.0
16/08:30pm 16.4 10.5 -9.4 16 9.4 W 15 17 8 9 1016.2 1014.6 0.0
16/08:00pm 17.3 11.8 -9.5 15 9.8 WSW 13 15 7 8 1015.7 1014.1 0.0
16/07:30pm 18.7 12.4 -10.2 13 10.6 W 17 22 9 12 1015.2 1013.5 0.0
16/07:00pm 19.7 12.4 -10.5 12 11.2 W 22 30 12 16 1014.9 1013.2 0.0
16/06:30pm 20.5 12.9 -9.8 12 11.5 W 24 30 13 16 1014.5 1012.9 0.0
16/06:00pm 21.1 12.9 -8.4 13 11.5 W 28 37 15 20 1014.2 1012.5 0.0
16/05:30pm 21.8 13.1 -5.1 16 11.3 WNW 32 43 17 23 1014.0 1012.3 0.0
16/05:00pm 22.7 13.7 -8.1 12 12.3 W 32 41 17 22 1014.0 1012.3 0.0
16/04:30pm 22.9 14.4 -6.9 13 12.2 WNW 30 43 16 23 1014.0 1012.3 0.0
16/04:00pm 23.4 15.9 -4.7 15 12.1 W 26 37 14 20 1013.9 1012.2 0.0
16/03:30pm 23.9 16.7 -5.2 14 12.4 NW 24 35 13 19 1014.1 1012.4 0.0
16/03:00pm 23.2 15.9 -6.7 13 12.3 WNW 24 39 13 21 1014.1 1012.4 0.0
16/02:30pm 23.5 16.2 -6.5 13 12.5 W 24 37 13 20 1014.5 1012.9 0.0
16/02:00pm 22.7 15.3 -3.6 17 11.5 NW 26 41 14 22 1014.7 1013.1 0.0
16/01:30pm 22.9 16.5 -1.9 19 11.2 NW 22 35 12 19 1015.3 1013.6 0.0
16/01:00pm 22.6 16.4 -0.2 22 10.6 WNW 22 35 12 19 1015.4 1013.7 0.0
16/12:30pm 21.8 15.8 -1.5 21 10.5 WNW 20 30 11 16 1015.5 1013.8 0.0
16/12:00pm 20.3 14.7 0.2 26 9.2 NNW 19 35 10 19 1015.9 1014.3 0.0
16/11:30am 20.2 15.4 0.1 26 9.2 WNW 15 30 8 16 1016.3 1014.7 0.0
16/11:00am 19.8 15.5 0.8 28 8.8 N 13 26 7 14 1016.6 1014.9 0.0
16/10:30am 18.8 13.9 2.2 33 7.9 NW 17 22 9 12 1016.7 1015.0 0.0
16/10:00am 17.0 13.5 1.4 35 7.2 NW 9 20 5 11 1016.8 1015.1 0.0
16/09:30am 16.7 14.5 1.2 35 7.1 S 2 11 1 6 1016.7 1015.0 0.0
16/09:00am 15.1 13.4 3.9 47 5.3 NW 2 9 1 5 1016.6 1014.9 0.0
16/08:30am 14.0 12.0 4.3 52 4.6 NNW 4 9 2 5 1016.7 1015.0 0.0
16/08:00am 12.7 10.9 3.4 53 4.3 NE 2 6 1 3 1016.6 1014.9 0.0
16/07:30am 11.5 10.0 3.0 56 3.9 CALM 0 0 0 0 1016.2 1014.6 0.0
16/07:00am 9.1 7.2 2.7 64 2.8 WSW 2 11 1 6 1016.0 1014.4 0.0
16/06:30am 5.7 3.9 1.4 74 1.8 CALM 0 0 0 0 1015.5 1013.8 0.0
16/06:00am 4.3 1.6 0.3 75 1.6 W 4 7 2 4 1015.1 1013.4 0.0
16/05:30am 6.6 4.8 1.1 68 2.3 CALM 0 0 0 0 1014.4 1012.8 0.0
16/05:00am 7.2 5.5 1.7 68 2.3 CALM 0 0 0 0 1014.1 1012.4 0.0
16/04:30am 6.8 2.7 0.0 62 2.8 SW 11 15 6 8 1014.0 1012.3 0.0
16/04:00am 10.0 5.1 2.1 58 3.5 NW 17 20 9 11 1013.8 1012.1 0.0
16/03:30am 9.5 4.5 1.4 57 3.5 NW 17 17 9 9 1013.7 1012.0 0.0
16/03:00am 6.6 4.3 0.5 65 2.5 W 2 11 1 6 1013.9 1012.2 0.0
16/02:30am 6.3 4.3 0.0 64 2.5 CALM 0 4 0 2 1014.0 1012.3 0.0
16/02:00am 6.8 4.8 0.0 62 2.8 CALM 0 4 0 2 1014.0 1012.3 0.0
16/01:30am 7.8 5.8 0.1 58 3.2 CALM 0 0 0 0 1014.2 1012.5 0.0
16/01:00am 7.8 5.8 -0.2 57 3.3 CALM 0 0 0 0 1014.2 1012.5 0.0
16/12:30am 9.3 5.1 -0.6 50 4.1 WNW 11 13 6 7 1014.3 1012.7 0.0
16/12:00am 11.4 7.0 0.2 46 4.8 WNW 13 15 7 8 1014.3 1012.7 0.0
 
Date/Time
EDT
Temp
°C
App
Temp
°C
Dew
Point
°C
Rel
Hum
%
Delta-T
°C
Wind Press
QNH
hPa
Press
MSL
hPa
Rain since
9am
mm
Dir  Spd
km/h
Gust
km/h
Spd
kts
Gust
kts
15/11:30pm 12.4 7.6 -0.1 42 5.3 WNW 15 17 8 9 1014.1 1012.4 0.0
15/11:00pm 10.6 6.0 -0.8 45 4.7 WNW 13 15 7 8 1013.9 1012.2 0.0
15/10:30pm 11.2 7.6 -1.9 40 5.3 W 7 9 4 5 1013.8 1012.1 0.0
15/10:00pm 13.9 10.4 -1.7 34 6.5 W 7 13 4 7 1013.6 1011.9 0.0
15/09:30pm 14.6 9.9 -1.9 32 6.9 W 13 15 7 8 1013.0 1011.4 0.0
15/09:00pm 16.2 10.6 -2.8 27 7.9 W 17 24 9 13 1012.4 1010.7 0.0
15/08:30pm 17.6 11.4 -3.2 24 8.7 W 20 28 11 15 1012.0 1010.3 0.0
15/08:00pm 18.9 10.2 -5.2 19 9.8 W 32 41 17 22 1011.4 1009.7 0.0
15/07:30pm 19.9 11.2 -5.1 18 10.3 WNW 32 43 17 23 1010.9 1009.2 0.0
15/07:00pm 21.3 10.5 -5.5 16 11.1 W 43 54 23 29 1010.4 1008.7 0.0
15/06:52pm 21.6 12.2 -6.1 15 11.4 WNW 35 54 19 29 1010.3 1008.6 0.0
15/06:30pm 22.3 12.2 -5.6 15 11.7 W 39 52 21 28 1010.1 1008.3 0.0
15/06:13pm 22.8 13.2 -4.3 16 11.7 WNW 37 61 20 33 1009.9 1008.1 0.0
15/06:00pm 23.1 12.3 -4.9 15 12.0 W 43 52 23 28 1009.7 1008.0 0.0
15/05:31pm 22.4 11.7 -4.6 16 11.5 W 43 61 23 33 1009.4 1007.7 0.0
15/05:30pm 22.6 11.7 -4.5 16 11.6 W 44 61 24 33 1009.4 1007.7 0.0
15/05:26pm 23.3 12.5 -4.8 15 12.0 W 43 61 23 33 1009.3 1007.6 0.0
15/05:00pm 23.9 13.9 -5.2 14 12.5 WNW 39 52 21 28 1009.3 1007.6 0.0
15/04:30pm 24.6 14.0 -3.7 15 12.5 W 43 61 23 33 1009.3 1007.6 0.0
15/04:04pm 25.0 14.2 -0.2 19 11.9 WNW 46 65 25 35 1009.2 1007.5 0.0
15/04:00pm 25.0 14.4 -1.7 17 12.3 WNW 44 61 24 33 1009.3 1007.6 0.0
15/03:46pm 25.1 14.8 -0.9 18 12.2 WNW 43 61 23 33 1009.2 1007.5 0.0
15/03:30pm 25.2 15.2 -1.6 17 12.4 WNW 41 54 22 29 1009.2 1007.5 0.0

Other formats

Comma delimited format used in spreadsheet applications
http://www.bom.gov.au/fwo/IDN60801/IDN60801.95716.axf

JavaScript Object Notation format (JSON) in row-major order
http://www.bom.gov.au/fwo/IDN60801/IDN60801.95716.json

Data quality

Most of these data are generated automatically and are frequently updated. Quality checks on data are not normally performed. It is possible for incorrect values to appear. Refer to information at About Latest Weather Observations and please check the disclaimer before using these data.